sensor_id;sensor_type;location;lat;lon;timestamp;P1;durP1;ratioP1;P2;durP2;ratioP2
33730;SDS011;22931;48.636;9.000;2023-07-16T00:01:42;1.40;;;0.90;;
33730;SDS011;22931;48.636;9.000;2023-07-16T00:07:05;1.25;;;0.63;;
33730;SDS011;22931;48.636;9.000;2023-07-16T00:12:31;1.10;;;0.70;;
33730;SDS011;22931;48.636;9.000;2023-07-16T00:17:49;0.57;;;0.57;;
33730;SDS011;22931;48.636;9.000;2023-07-16T00:23:32;0.65;;;0.65;;
33730;SDS011;22931;48.636;9.000;2023-07-16T00:28:56;0.43;;;0.43;;
33730;SDS011;22931;48.636;9.000;2023-07-16T00:34:09;0.57;;;0.52;;
33730;SDS011;22931;48.636;9.000;2023-07-16T00:39:23;1.33;;;0.57;;
33730;SDS011;22931;48.636;9.000;2023-07-16T00:44:35;2.65;;;0.60;;
33730;SDS011;22931;48.636;9.000;2023-07-16T00:49:57;0.50;;;0.50;;
33730;SDS011;22931;48.636;9.000;2023-07-16T00:55:13;1.10;;;0.55;;
33730;SDS011;22931;48.636;9.000;2023-07-16T01:00:30;0.93;;;0.60;;
33730;SDS011;22931;48.636;9.000;2023-07-16T01:05:58;0.43;;;0.43;;
33730;SDS011;22931;48.636;9.000;2023-07-16T01:11:24;0.93;;;0.73;;
33730;SDS011;22931;48.636;9.000;2023-07-16T01:16:52;0.47;;;0.47;;
33730;SDS011;22931;48.636;9.000;2023-07-16T01:22:32;0.70;;;0.70;;
33730;SDS011;22931;48.636;9.000;2023-07-16T01:28:02;0.40;;;0.40;;
33730;SDS011;22931;48.636;9.000;2023-07-16T01:33:33;1.52;;;0.50;;
33730;SDS011;22931;48.636;9.000;2023-07-16T01:38:51;0.60;;;0.60;;
33730;SDS011;22931;48.636;9.000;2023-07-16T01:49:32;0.60;;;0.60;;
33730;SDS011;22931;48.636;9.000;2023-07-16T01:54:47;0.47;;;0.47;;
33730;SDS011;22931;48.636;9.000;2023-07-16T01:59:59;0.70;;;0.70;;
33730;SDS011;22931;48.636;9.000;2023-07-16T02:05:22;0.40;;;0.40;;
33730;SDS011;22931;48.636;9.000;2023-07-16T02:15:51;0.35;;;0.35;;
33730;SDS011;22931;48.636;9.000;2023-07-16T02:21:08;0.50;;;0.50;;
33730;SDS011;22931;48.636;9.000;2023-07-16T02:26:22;0.65;;;0.63;;
33730;SDS011;22931;48.636;9.000;2023-07-16T02:31:47;1.20;;;0.82;;
33730;SDS011;22931;48.636;9.000;2023-07-16T02:37:03;0.65;;;0.65;;
33730;SDS011;22931;48.636;9.000;2023-07-16T02:42:43;0.93;;;0.60;;
33730;SDS011;22931;48.636;9.000;2023-07-16T02:48:16;0.57;;;0.57;;
33730;SDS011;22931;48.636;9.000;2023-07-16T02:53:51;0.60;;;0.60;;
33730;SDS011;22931;48.636;9.000;2023-07-16T02:59:20;1.77;;;0.70;;
33730;SDS011;22931;48.636;9.000;2023-07-16T08:29:30;3.60;;;1.40;;
33730;SDS011;22931;48.636;9.000;2023-07-16T08:34:41;1.35;;;0.80;;
33730;SDS011;22931;48.636;9.000;2023-07-16T08:39:52;4.68;;;1.27;;
33730;SDS011;22931;48.636;9.000;2023-07-16T08:45:17;2.92;;;1.05;;
33730;SDS011;22931;48.636;9.000;2023-07-16T08:50:56;3.65;;;0.90;;
33730;SDS011;22931;48.636;9.000;2023-07-16T08:56:18;1.60;;;1.15;;
33730;SDS011;22931;48.636;9.000;2023-07-16T09:01:51;2.15;;;1.20;;
33730;SDS011;22931;48.636;9.000;2023-07-16T09:07:14;1.52;;;1.27;;
33730;SDS011;22931;48.636;9.000;2023-07-16T09:12:43;1.83;;;1.00;;
33730;SDS011;22931;48.636;9.000;2023-07-16T09:24:10;1.05;;;0.88;;
33730;SDS011;22931;48.636;9.000;2023-07-16T09:29:39;2.53;;;1.00;;
33730;SDS011;22931;48.636;9.000;2023-07-16T09:35:14;1.42;;;1.30;;
33730;SDS011;22931;48.636;9.000;2023-07-16T09:40:30;1.02;;;0.88;;
33730;SDS011;22931;48.636;9.000;2023-07-16T09:46:18;1.45;;;1.05;;
33730;SDS011;22931;48.636;9.000;2023-07-16T09:52:14;1.30;;;1.00;;
33730;SDS011;22931;48.636;9.000;2023-07-16T09:58:19;1.30;;;0.85;;
33730;SDS011;22931;48.636;9.000;2023-07-16T10:03:35;3.30;;;1.02;;
33730;SDS011;22931;48.636;9.000;2023-07-16T10:08:51;1.83;;;1.02;;
33730;SDS011;22931;48.636;9.000;2023-07-16T10:14:04;2.03;;;1.20;;
33730;SDS011;22931;48.636;9.000;2023-07-16T10:19:50;1.48;;;1.00;;
33730;SDS011;22931;48.636;9.000;2023-07-16T10:25:08;2.45;;;1.20;;
33730;SDS011;22931;48.636;9.000;2023-07-16T10:30:36;1.65;;;0.93;;
33730;SDS011;22931;48.636;9.000;2023-07-16T10:35:46;1.85;;;1.00;;
33730;SDS011;22931;48.636;9.000;2023-07-16T10:41:02;1.50;;;1.30;;
33730;SDS011;22931;48.636;9.000;2023-07-16T10:46:23;2.85;;;1.80;;
33730;SDS011;22931;48.636;9.000;2023-07-16T10:51:34;2.58;;;1.25;;
33730;SDS011;22931;48.636;9.000;2023-07-16T10:56:43;5.13;;;1.10;;
33730;SDS011;22931;48.636;9.000;2023-07-16T11:01:57;1.48;;;0.90;;
33730;SDS011;22931;48.636;9.000;2023-07-16T11:07:12;1.35;;;1.00;;
33730;SDS011;22931;48.636;9.000;2023-07-16T11:12:26;2.90;;;1.42;;
33730;SDS011;22931;48.636;9.000;2023-07-16T11:17:48;2.08;;;1.10;;
33730;SDS011;22931;48.636;9.000;2023-07-16T11:23:17;1.80;;;1.02;;
33730;SDS011;22931;48.636;9.000;2023-07-16T11:28:37;1.95;;;1.05;;
33730;SDS011;22931;48.636;9.000;2023-07-16T11:33:53;2.13;;;1.13;;
33730;SDS011;22931;48.636;9.000;2023-07-16T11:39:14;1.80;;;1.38;;
33730;SDS011;22931;48.636;9.000;2023-07-16T11:44:34;1.38;;;0.85;;
33730;SDS011;22931;48.636;9.000;2023-07-16T11:49:59;2.85;;;1.25;;
33730;SDS011;22931;48.636;9.000;2023-07-16T11:55:13;1.50;;;1.20;;
33730;SDS011;22931;48.636;9.000;2023-07-16T12:00:28;1.40;;;1.17;;
33730;SDS011;22931;48.636;9.000;2023-07-16T12:11:36;2.65;;;1.15;;
33730;SDS011;22931;48.636;9.000;2023-07-16T12:16:51;1.25;;;1.08;;
33730;SDS011;22931;48.636;9.000;2023-07-16T12:22:10;1.35;;;1.00;;
33730;SDS011;22931;48.636;9.000;2023-07-16T12:27:36;2.97;;;1.00;;
33730;SDS011;22931;48.636;9.000;2023-07-16T12:32:59;1.02;;;0.85;;
33730;SDS011;22931;48.636;9.000;2023-07-16T12:38:12;2.78;;;1.10;;
33730;SDS011;22931;48.636;9.000;2023-07-16T12:43:31;1.08;;;0.98;;
33730;SDS011;22931;48.636;9.000;2023-07-16T12:48:48;1.65;;;1.05;;
33730;SDS011;22931;48.636;9.000;2023-07-16T12:53:57;2.10;;;0.93;;
33730;SDS011;22931;48.636;9.000;2023-07-16T12:59:15;2.28;;;1.10;;
33730;SDS011;22931;48.636;9.000;2023-07-16T13:04:35;1.15;;;1.05;;
33730;SDS011;22931;48.636;9.000;2023-07-16T13:09:50;1.35;;;1.05;;
33730;SDS011;22931;48.636;9.000;2023-07-16T13:15:29;1.67;;;0.70;;
33730;SDS011;22931;48.636;9.000;2023-07-16T13:20:41;1.83;;;1.05;;
33730;SDS011;22931;48.636;9.000;2023-07-16T13:25:57;1.58;;;1.00;;
33730;SDS011;22931;48.636;9.000;2023-07-16T13:31:15;2.22;;;1.23;;
33730;SDS011;22931;48.636;9.000;2023-07-16T13:36:27;2.70;;;1.63;;
33730;SDS011;22931;48.636;9.000;2023-07-16T13:41:42;1.42;;;1.20;;
33730;SDS011;22931;48.636;9.000;2023-07-16T13:46:56;2.72;;;0.90;;
33730;SDS011;22931;48.636;9.000;2023-07-16T13:52:12;1.90;;;1.27;;
33730;SDS011;22931;48.636;9.000;2023-07-16T13:57:28;2.80;;;1.17;;
33730;SDS011;22931;48.636;9.000;2023-07-16T14:08:16;1.20;;;1.10;;
33730;SDS011;22931;48.636;9.000;2023-07-16T14:13:43;2.30;;;1.38;;
33730;SDS011;22931;48.636;9.000;2023-07-16T14:19:06;2.60;;;1.40;;
33730;SDS011;22931;48.636;9.000;2023-07-16T14:24:20;1.73;;;1.05;;
33730;SDS011;22931;48.636;9.000;2023-07-16T14:29:41;2.67;;;1.50;;
33730;SDS011;22931;48.636;9.000;2023-07-16T14:35:08;1.77;;;1.42;;
33730;SDS011;22931;48.636;9.000;2023-07-16T14:40:41;2.08;;;1.17;;
33730;SDS011;22931;48.636;9.000;2023-07-16T14:45:58;1.58;;;1.10;;
33730;SDS011;22931;48.636;9.000;2023-07-16T14:51:18;1.55;;;1.00;;
33730;SDS011;22931;48.636;9.000;2023-07-16T14:56:47;0.80;;;0.80;;
33730;SDS011;22931;48.636;9.000;2023-07-16T15:02:04;1.45;;;1.10;;
33730;SDS011;22931;48.636;9.000;2023-07-16T15:07:23;1.50;;;1.10;;
33730;SDS011;22931;48.636;9.000;2023-07-16T15:12:43;1.48;;;1.00;;
33730;SDS011;22931;48.636;9.000;2023-07-16T15:18:48;1.95;;;1.40;;
33730;SDS011;22931;48.636;9.000;2023-07-16T15:39:49;1.80;;;0.93;;
33730;SDS011;22931;48.636;9.000;2023-07-16T15:45:38;1.38;;;1.15;;
33730;SDS011;22931;48.636;9.000;2023-07-16T15:51:00;2.30;;;1.23;;
33730;SDS011;22931;48.636;9.000;2023-07-16T15:56:22;1.33;;;1.05;;
33730;SDS011;22931;48.636;9.000;2023-07-16T16:01:51;3.63;;;1.40;;
33730;SDS011;22931;48.636;9.000;2023-07-16T16:07:20;1.73;;;1.20;;
33730;SDS011;22931;48.636;9.000;2023-07-16T16:12:49;1.33;;;1.20;;
33730;SDS011;22931;48.636;9.000;2023-07-16T16:18:45;1.48;;;1.27;;
33730;SDS011;22931;48.636;9.000;2023-07-16T16:25:01;5.47;;;1.50;;
33730;SDS011;22931;48.636;9.000;2023-07-16T16:31:04;2.22;;;1.73;;
33730;SDS011;22931;48.636;9.000;2023-07-16T16:42:42;2.13;;;1.27;;
33730;SDS011;22931;48.636;9.000;2023-07-16T16:53:39;4.20;;;2.17;;
33730;SDS011;22931;48.636;9.000;2023-07-16T17:17:48;1.20;;;1.10;;
33730;SDS011;22931;48.636;9.000;2023-07-16T17:46:42;1.77;;;1.33;;
33730;SDS011;22931;48.636;9.000;2023-07-16T17:52:32;2.78;;;1.33;;
33730;SDS011;22931;48.636;9.000;2023-07-16T18:03:38;1.80;;;1.25;;
33730;SDS011;22931;48.636;9.000;2023-07-16T18:14:39;2.03;;;1.20;;
33730;SDS011;22931;48.636;9.000;2023-07-16T18:31:44;1.77;;;1.15;;
33730;SDS011;22931;48.636;9.000;2023-07-16T20:34:47;2.58;;;1.35;;
33730;SDS011;22931;48.636;9.000;2023-07-16T20:40:19;1.50;;;1.30;;
33730;SDS011;22931;48.636;9.000;2023-07-16T20:45:37;1.88;;;1.05;;
33730;SDS011;22931;48.636;9.000;2023-07-16T20:50:58;4.22;;;1.52;;
33730;SDS011;22931;48.636;9.000;2023-07-16T20:56:14;4.15;;;1.38;;
33730;SDS011;22931;48.636;9.000;2023-07-16T21:01:22;1.85;;;1.52;;
33730;SDS011;22931;48.636;9.000;2023-07-16T21:06:33;2.53;;;1.45;;
33730;SDS011;22931;48.636;9.000;2023-07-16T21:11:41;1.50;;;1.40;;
33730;SDS011;22931;48.636;9.000;2023-07-16T21:16:50;1.48;;;1.27;;
33730;SDS011;22931;48.636;9.000;2023-07-16T21:22:01;1.83;;;1.08;;
33730;SDS011;22931;48.636;9.000;2023-07-16T21:27:08;1.35;;;1.17;;
33730;SDS011;22931;48.636;9.000;2023-07-16T21:32:16;1.92;;;1.15;;
33730;SDS011;22931;48.636;9.000;2023-07-16T21:37:27;1.52;;;0.98;;
33730;SDS011;22931;48.636;9.000;2023-07-16T21:42:35;1.50;;;1.20;;
33730;SDS011;22931;48.636;9.000;2023-07-16T21:47:43;1.40;;;1.10;;
33730;SDS011;22931;48.636;9.000;2023-07-16T21:52:53;2.10;;;1.10;;
33730;SDS011;22931;48.636;9.000;2023-07-16T21:58:01;1.20;;;1.10;;
33730;SDS011;22931;48.636;9.000;2023-07-16T22:03:09;2.75;;;1.40;;
33730;SDS011;22931;48.636;9.000;2023-07-16T22:08:20;1.58;;;1.30;;
33730;SDS011;22931;48.636;9.000;2023-07-16T22:13:30;5.35;;;1.40;;
33730;SDS011;22931;48.636;9.000;2023-07-16T22:18:40;2.17;;;1.30;;
33730;SDS011;22931;48.636;9.000;2023-07-16T22:23:51;1.40;;;1.23;;
33730;SDS011;22931;48.636;9.000;2023-07-16T22:29:02;1.52;;;1.30;;
33730;SDS011;22931;48.636;9.000;2023-07-16T22:34:12;1.38;;;1.25;;
33730;SDS011;22931;48.636;9.000;2023-07-16T22:39:23;5.63;;;1.58;;
33730;SDS011;22931;48.636;9.000;2023-07-16T22:44:31;2.25;;;1.30;;
33730;SDS011;22931;48.636;9.000;2023-07-16T22:49:43;2.78;;;1.27;;
33730;SDS011;22931;48.636;9.000;2023-07-16T22:54:54;2.08;;;1.35;;
33730;SDS011;22931;48.636;9.000;2023-07-16T23:00:02;2.70;;;1.20;;
33730;SDS011;22931;48.636;9.000;2023-07-16T23:05:13;2.80;;;1.38;;
33730;SDS011;22931;48.636;9.000;2023-07-16T23:10:24;1.50;;;1.40;;
33730;SDS011;22931;48.636;9.000;2023-07-16T23:15:32;1.23;;;1.00;;
33730;SDS011;22931;48.636;9.000;2023-07-16T23:20:41;3.25;;;1.38;;
33730;SDS011;22931;48.636;9.000;2023-07-16T23:25:52;2.75;;;1.40;;
33730;SDS011;22931;48.636;9.000;2023-07-16T23:31:00;5.40;;;1.80;;
33730;SDS011;22931;48.636;9.000;2023-07-16T23:36:08;1.50;;;1.17;;
33730;SDS011;22931;48.636;9.000;2023-07-16T23:41:19;1.83;;;1.05;;
33730;SDS011;22931;48.636;9.000;2023-07-16T23:46:27;2.58;;;1.50;;
33730;SDS011;22931;48.636;9.000;2023-07-16T23:51:35;4.10;;;1.55;;
33730;SDS011;22931;48.636;9.000;2023-07-16T23:56:45;1.30;;;1.20;;
